createdAt,value
2023-05-09T00:01:06.586Z,10.20
2023-05-09T00:03:33.360Z,10.30
2023-05-09T00:06:00.062Z,10.10
2023-05-09T00:08:26.829Z,10.30
2023-05-09T00:10:53.823Z,10.00
2023-05-09T00:13:20.974Z,10.30
2023-05-09T00:15:48.374Z,11.50
2023-05-09T00:18:15.483Z,10.70
2023-05-09T00:20:42.619Z,10.70
2023-05-09T00:23:09.523Z,11.20
2023-05-09T00:25:36.520Z,10.90
2023-05-09T00:28:03.349Z,9.90
2023-05-09T00:30:30.910Z,10.30
2023-05-09T00:32:57.889Z,10.70
2023-05-09T00:35:24.745Z,10.30
2023-05-09T00:37:51.514Z,10.60
2023-05-09T00:40:18.371Z,10.60
2023-05-09T00:42:45.706Z,10.70
2023-05-09T00:45:12.760Z,10.50
2023-05-09T00:47:39.962Z,11.40
2023-05-09T00:50:07.494Z,10.30
2023-05-09T00:52:34.910Z,10.70
2023-05-09T00:55:03.010Z,11.50
2023-05-09T00:57:29.754Z,10.90
2023-05-09T00:59:56.638Z,10.70
2023-05-09T01:02:23.987Z,10.80
2023-05-09T01:04:51.285Z,11.40
2023-05-09T01:07:36.843Z,10.30
2023-05-09T01:10:21.541Z,10.20
2023-05-09T01:13:13.434Z,9.90
2023-05-09T01:16:11.947Z,9.90
2023-05-09T01:18:45.421Z,10.10
2023-05-09T01:21:17.000Z,9.50
2023-05-09T01:23:44.313Z,9.40
2023-05-09T01:26:19.845Z,9.60
2023-05-09T01:29:17.442Z,10.00
2023-05-09T01:31:46.768Z,9.80
2023-05-09T01:34:16.879Z,9.50
2023-05-09T01:36:44.334Z,9.30
2023-05-09T01:39:13.450Z,9.10
2023-05-09T01:41:40.637Z,9.60
2023-05-09T01:44:11.702Z,9.00
2023-05-09T01:46:39.937Z,8.90
2023-05-09T01:49:09.504Z,10.30
2023-05-09T01:51:39.897Z,9.40
2023-05-09T01:54:08.207Z,9.40
2023-05-09T01:56:38.259Z,10.00
2023-05-09T01:59:07.660Z,10.10
2023-05-09T02:01:35.917Z,11.00
2023-05-09T02:04:04.609Z,10.50
2023-05-09T02:06:32.643Z,10.30
2023-05-09T02:08:59.562Z,9.90
2023-05-09T02:11:26.399Z,10.20
2023-05-09T02:13:53.243Z,9.60
2023-05-09T02:16:21.198Z,10.60
2023-05-09T02:18:48.727Z,9.70
2023-05-09T02:21:15.664Z,10.00
2023-05-09T02:23:42.629Z,9.20
2023-05-09T02:26:09.397Z,9.60
2023-05-09T02:28:37.883Z,9.80
2023-05-09T02:31:07.536Z,9.50
2023-05-09T02:33:37.482Z,9.40
2023-05-09T02:36:06.128Z,9.40
2023-05-09T02:38:33.877Z,10.50
2023-05-09T02:41:02.482Z,10.80
2023-05-09T02:43:29.231Z,10.00
2023-05-09T02:45:56.033Z,9.70
2023-05-09T02:48:23.410Z,9.30
2023-05-09T02:50:50.214Z,8.90
2023-05-09T02:53:17.009Z,8.60
2023-05-09T02:55:43.934Z,8.30
2023-05-09T02:58:14.842Z,8.70
2023-05-09T03:00:43.249Z,9.70
2023-05-09T03:03:10.999Z,9.30
2023-05-09T03:05:37.915Z,9.10
2023-05-09T03:08:05.195Z,8.50
2023-05-09T03:10:32.778Z,7.80
2023-05-09T03:12:59.596Z,8.00
2023-05-09T03:15:27.437Z,7.80
2023-05-09T03:17:54.657Z,8.90
2023-05-09T03:20:21.934Z,10.90
2023-05-09T03:22:49.613Z,11.90
2023-05-09T03:25:17.057Z,11.20
2023-05-09T03:27:44.990Z,10.20
2023-05-09T03:30:14.585Z,8.50
2023-05-09T03:32:42.463Z,9.10
2023-05-09T03:35:09.315Z,9.40
2023-05-09T03:37:36.181Z,9.70
2023-05-09T03:40:04.037Z,8.80
2023-05-09T03:42:32.296Z,9.00
2023-05-09T03:45:00.591Z,10.10
2023-05-09T03:47:28.913Z,10.70
2023-05-09T03:49:56.729Z,10.10
2023-05-09T03:52:24.108Z,9.70
2023-05-09T03:54:51.033Z,9.10
2023-05-09T03:57:17.894Z,9.20
2023-05-09T03:59:45.109Z,9.60
2023-05-09T04:02:14.644Z,9.90
2023-05-09T04:04:41.591Z,10.90
2023-05-09T04:07:09.198Z,12.20
2023-05-09T04:09:36.464Z,11.20
2023-05-09T04:12:03.384Z,11.70
2023-05-09T04:14:30.797Z,11.40
2023-05-09T04:16:57.842Z,11.10
2023-05-09T04:19:25.852Z,11.90
2023-05-09T04:21:53.616Z,11.60
2023-05-09T04:24:20.759Z,11.70
2023-05-09T04:26:48.522Z,10.60
2023-05-09T04:29:18.284Z,10.10
2023-05-09T04:31:49.507Z,10.00
2023-05-09T04:34:16.663Z,9.60
2023-05-09T04:36:44.981Z,10.60
2023-05-09T04:39:12.965Z,10.20
2023-05-09T04:41:44.615Z,9.60
2023-05-09T04:44:13.974Z,9.70
2023-05-09T04:46:40.930Z,9.10
2023-05-09T04:49:07.752Z,8.90
2023-05-09T04:51:34.589Z,8.40
2023-05-09T04:54:01.502Z,8.80
2023-05-09T04:56:31.193Z,8.30
2023-05-09T04:59:15.935Z,7.80
2023-05-09T05:01:43.580Z,7.80
2023-05-09T05:04:10.787Z,7.70
2023-05-09T05:06:37.889Z,5.40
2023-05-09T05:09:05.167Z,7.70
2023-05-09T05:11:31.950Z,7.80
2023-05-09T05:13:59.072Z,8.10
2023-05-09T05:16:26.708Z,9.60
2023-05-09T05:18:53.515Z,7.90
2023-05-09T05:21:20.502Z,7.40
2023-05-09T05:23:47.375Z,7.50
2023-05-09T05:26:14.309Z,7.50
2023-05-09T05:28:41.355Z,7.20
2023-05-09T05:31:08.095Z,7.90
2023-05-09T05:33:34.912Z,8.10
2023-05-09T05:36:02.212Z,7.80
2023-05-09T05:38:29.316Z,7.00
2023-05-09T05:40:56.668Z,6.90
2023-05-09T05:43:23.875Z,6.70
2023-05-09T05:45:51.211Z,5.70
2023-05-09T05:48:19.618Z,6.30
2023-05-09T05:50:46.755Z,5.80
2023-05-09T05:53:14.655Z,5.90
2023-05-09T05:55:41.903Z,5.30
2023-05-09T05:58:08.703Z,5.70
2023-05-09T06:00:36.299Z,4.50
2023-05-09T06:03:03.715Z,4.50
2023-05-09T06:05:42.625Z,3.60
2023-05-09T06:08:09.499Z,4.40
2023-05-09T06:10:36.342Z,3.70
2023-05-09T06:13:03.126Z,3.80
2023-05-09T06:15:30.177Z,4.30
2023-05-09T06:17:57.147Z,4.50
2023-05-09T06:20:23.916Z,3.60
2023-05-09T06:22:50.867Z,4.50
2023-05-09T06:25:19.086Z,3.60
2023-05-09T06:27:45.960Z,4.10
2023-05-09T06:30:24.742Z,3.90
2023-05-09T06:32:52.323Z,4.00
2023-05-09T06:35:19.197Z,3.50
2023-05-09T06:37:48.374Z,3.10
2023-05-09T06:40:15.900Z,3.40
2023-05-09T06:42:42.673Z,3.50
2023-05-09T06:45:09.865Z,3.40
2023-05-09T06:47:36.683Z,3.50
2023-05-09T06:50:03.831Z,3.40
2023-05-09T06:52:30.569Z,3.40
2023-05-09T06:54:57.388Z,3.30
2023-05-09T06:57:24.279Z,3.40
2023-05-09T06:59:52.087Z,4.40
2023-05-09T07:02:18.856Z,3.90
2023-05-09T07:04:48.192Z,3.50
2023-05-09T07:07:15.456Z,3.40
2023-05-09T07:09:42.483Z,3.90
2023-05-09T07:12:10.041Z,3.70
2023-05-09T07:14:36.885Z,3.60
2023-05-09T07:17:18.747Z,3.90
2023-05-09T07:19:52.044Z,3.30
2023-05-09T07:22:19.224Z,3.40
2023-05-09T07:24:46.597Z,3.60
2023-05-09T07:27:13.749Z,3.40
2023-05-09T07:29:40.623Z,3.40
2023-05-09T07:32:07.498Z,3.00
2023-05-09T07:34:34.621Z,3.40
2023-05-09T07:37:01.521Z,3.90
2023-05-09T07:39:28.270Z,3.00
2023-05-09T07:41:55.240Z,3.30
2023-05-09T07:44:22.782Z,3.10
2023-05-09T07:46:49.850Z,3.50
2023-05-09T07:49:16.694Z,3.10
2023-05-09T07:51:43.528Z,3.20
2023-05-09T07:54:10.392Z,3.10
2023-05-09T07:56:37.301Z,3.50
2023-05-09T07:59:05.563Z,2.90
2023-05-09T08:01:32.449Z,3.00
2023-05-09T08:03:59.438Z,2.90
2023-05-09T08:06:26.636Z,3.10
2023-05-09T08:08:53.451Z,3.30
2023-05-09T08:11:20.261Z,3.00
2023-05-09T08:13:48.308Z,3.40
2023-05-09T08:16:17.440Z,2.90
2023-05-09T08:18:44.752Z,3.00
2023-05-09T08:21:11.537Z,2.90
2023-05-09T08:23:38.955Z,3.30
2023-05-09T08:26:05.963Z,2.50
2023-05-09T08:28:32.783Z,3.30
2023-05-09T08:30:59.760Z,4.00
2023-05-09T08:33:26.644Z,4.00
2023-05-09T08:35:53.963Z,3.10
2023-05-09T08:38:24.499Z,3.20
2023-05-09T08:40:51.325Z,3.30
2023-05-09T08:43:20.310Z,3.50
2023-05-09T08:45:52.131Z,3.50
2023-05-09T08:48:19.631Z,3.40
2023-05-09T08:50:47.314Z,3.80
2023-05-09T08:53:14.909Z,2.80
2023-05-09T08:55:41.847Z,3.60
2023-05-09T08:58:09.779Z,3.50
2023-05-09T09:00:38.799Z,3.40
2023-05-09T09:03:06.917Z,2.60
2023-05-09T09:05:41.883Z,2.90
2023-05-09T09:08:10.992Z,3.30
2023-05-09T09:10:47.706Z,2.40
2023-05-09T09:13:16.894Z,2.60
2023-05-09T09:15:46.450Z,3.00
2023-05-09T09:18:20.954Z,3.20
2023-05-09T09:20:52.205Z,2.80
2023-05-09T09:23:21.329Z,2.60
2023-05-09T09:25:48.891Z,2.70
2023-05-09T09:28:15.790Z,2.80
2023-05-09T09:30:46.043Z,2.60
2023-05-09T09:33:22.668Z,2.40
2023-05-09T09:35:51.118Z,2.60
2023-05-09T09:38:19.723Z,2.60
2023-05-09T09:40:58.596Z,3.10
2023-05-09T09:43:30.494Z,2.90
2023-05-09T09:46:01.196Z,2.70
2023-05-09T09:48:33.793Z,2.90
2023-05-09T09:51:11.988Z,2.80
2023-05-09T09:53:39.703Z,2.40
2023-05-09T09:56:07.039Z,2.90
2023-05-09T09:58:34.270Z,2.80
2023-05-09T10:01:06.417Z,2.50
2023-05-09T10:03:38.297Z,2.50
2023-05-09T10:06:05.800Z,2.80
2023-05-09T10:08:32.797Z,2.70
2023-05-09T10:10:59.997Z,2.60
2023-05-09T10:13:27.492Z,2.30
2023-05-09T10:15:55.893Z,2.60
2023-05-09T10:18:28.875Z,2.90
2023-05-09T10:21:01.131Z,2.70
2023-05-09T10:23:30.917Z,2.60
2023-05-09T10:26:05.095Z,2.80
2023-05-09T10:28:35.258Z,2.30
2023-05-09T10:31:33.107Z,2.20
2023-05-09T10:34:05.062Z,2.00
2023-05-09T10:36:32.705Z,2.20
2023-05-09T10:39:00.164Z,2.60
2023-05-09T10:41:27.069Z,2.60
2023-05-09T10:43:57.313Z,5.70
2023-05-09T10:46:25.226Z,3.10
2023-05-09T10:48:52.631Z,2.50
2023-05-09T10:51:19.698Z,2.80
2023-05-09T10:53:48.753Z,2.50
2023-05-09T10:56:25.169Z,3.00
2023-05-09T10:58:51.926Z,2.40
2023-05-09T11:01:37.226Z,2.60
2023-05-09T11:04:14.744Z,1.80
2023-05-09T11:06:43.981Z,2.80
2023-05-09T11:09:32.922Z,2.40
2023-05-09T11:12:02.343Z,2.70
2023-05-09T11:14:31.117Z,2.60
2023-05-09T11:16:59.804Z,2.10
2023-05-09T11:19:45.648Z,2.70
2023-05-09T11:22:15.778Z,2.40
2023-05-09T11:24:51.850Z,2.50
2023-05-09T11:27:28.415Z,2.40
2023-05-09T11:29:58.099Z,2.40
2023-05-09T11:32:31.852Z,2.50
2023-05-09T11:35:10.004Z,1.90
2023-05-09T11:37:52.596Z,3.00
2023-05-09T11:40:24.315Z,2.00
2023-05-09T11:42:57.758Z,1.70
2023-05-09T11:45:29.974Z,1.80
2023-05-09T11:47:57.693Z,1.90
2023-05-09T11:50:25.231Z,2.10
2023-05-09T11:52:54.167Z,2.00
2023-05-09T11:55:23.031Z,1.90
2023-05-09T11:57:52.419Z,2.20
2023-05-09T12:00:22.025Z,2.20
2023-05-09T12:02:51.115Z,1.90
2023-05-09T12:05:20.863Z,1.90
2023-05-09T12:07:48.035Z,2.00
2023-05-09T12:10:21.233Z,1.80
2023-05-09T12:12:50.190Z,1.80
2023-05-09T12:15:19.701Z,2.00
2023-05-09T12:17:50.482Z,1.70
2023-05-09T12:20:18.906Z,1.90
2023-05-09T12:22:53.756Z,1.80
2023-05-09T12:25:20.593Z,1.90
2023-05-09T12:27:47.476Z,2.10
2023-05-09T12:30:16.280Z,1.70
2023-05-09T12:32:43.932Z,2.00
2023-05-09T12:35:11.500Z,1.90
2023-05-09T12:37:39.026Z,1.60
2023-05-09T12:40:11.397Z,1.80
2023-05-09T12:42:39.092Z,1.40
2023-05-09T12:45:08.912Z,1.60
2023-05-09T12:47:37.330Z,1.60
2023-05-09T12:50:06.497Z,1.70
2023-05-09T12:52:36.777Z,1.80
2023-05-09T12:55:09.096Z,1.80
2023-05-09T12:57:36.140Z,1.50
2023-05-09T13:00:07.653Z,1.70
2023-05-09T13:02:37.056Z,1.80
2023-05-09T13:05:12.195Z,1.80
2023-05-09T13:07:41.117Z,1.60
2023-05-09T13:10:14.664Z,1.50
2023-05-09T13:15:12.722Z,1.70
2023-05-09T13:17:39.846Z,1.80
2023-05-09T13:20:07.499Z,1.80
2023-05-09T13:22:35.809Z,2.00
2023-05-09T13:25:03.412Z,1.40
2023-05-09T13:27:30.581Z,1.60
2023-05-09T13:29:57.634Z,1.70
2023-05-09T13:32:25.072Z,1.60
2023-05-09T13:34:52.901Z,1.50
2023-05-09T13:37:19.873Z,1.70
2023-05-09T13:39:46.703Z,1.40
2023-05-09T13:42:13.596Z,1.50
2023-05-09T13:44:40.402Z,1.60
2023-05-09T13:47:07.965Z,1.50
2023-05-09T13:49:35.061Z,1.50
2023-05-09T13:52:01.839Z,1.70
2023-05-09T13:54:31.372Z,1.70
2023-05-09T13:56:58.278Z,1.30
2023-05-09T13:59:25.017Z,2.00
2023-05-09T14:01:52.111Z,1.70
2023-05-09T14:04:19.158Z,2.10
2023-05-09T14:06:48.311Z,1.70
2023-05-09T14:09:15.766Z,1.70
2023-05-09T14:11:42.882Z,2.40
2023-05-09T14:14:09.628Z,1.80
2023-05-09T14:16:36.465Z,1.70
2023-05-09T14:19:03.293Z,1.60
2023-05-09T14:21:30.067Z,1.60
2023-05-09T14:23:57.513Z,1.50
2023-05-09T14:26:26.590Z,1.50
2023-05-09T14:28:54.310Z,2.10
2023-05-09T14:31:21.271Z,2.20
2023-05-09T14:33:48.109Z,1.80
2023-05-09T14:36:14.989Z,2.10
2023-05-09T14:38:43.073Z,2.10
2023-05-09T14:41:09.958Z,1.70
2023-05-09T14:43:36.983Z,1.90
2023-05-09T14:46:03.977Z,1.90
2023-05-09T14:48:30.868Z,1.90
2023-05-09T14:50:57.749Z,2.20
2023-05-09T14:53:24.689Z,1.70
2023-05-09T14:55:52.277Z,2.00
2023-05-09T14:58:19.510Z,2.50
2023-05-09T15:00:47.458Z,1.70
2023-05-09T15:03:14.652Z,2.00
2023-05-09T15:05:42.228Z,2.00
2023-05-09T15:08:09.085Z,2.20
2023-05-09T15:10:36.084Z,2.10
2023-05-09T15:13:05.796Z,1.60
2023-05-09T15:15:32.931Z,1.50
2023-05-09T15:18:01.035Z,1.40
2023-05-09T15:20:27.819Z,2.10
2023-05-09T15:22:54.641Z,2.00
2023-05-09T15:25:23.278Z,1.90
2023-05-09T15:27:51.130Z,1.70
2023-05-09T15:30:20.251Z,1.70
2023-05-09T15:32:47.212Z,1.50
2023-05-09T15:35:14.230Z,1.90
2023-05-09T15:37:41.163Z,1.80
2023-05-09T15:40:08.534Z,1.90
2023-05-09T15:42:35.936Z,1.50
2023-05-09T15:45:03.840Z,2.00
2023-05-09T15:47:31.076Z,2.20
2023-05-09T15:49:57.882Z,1.90
2023-05-09T15:52:24.720Z,1.70
2023-05-09T15:54:51.447Z,1.60
2023-05-09T15:57:18.210Z,1.80
2023-05-09T15:59:44.978Z,1.70
2023-05-09T16:04:39.011Z,1.70
2023-05-09T16:07:05.840Z,1.70
2023-05-09T16:09:32.985Z,1.50
2023-05-09T16:11:59.727Z,1.60
2023-05-09T16:14:26.618Z,2.20
2023-05-09T16:16:54.028Z,1.70
2023-05-09T16:19:21.873Z,1.50
2023-05-09T16:21:48.788Z,1.70
2023-05-09T16:24:15.559Z,1.70
2023-05-09T16:26:42.378Z,1.90
2023-05-09T16:29:10.013Z,1.90
2023-05-09T16:31:37.083Z,2.00
2023-05-09T16:34:04.033Z,1.90
2023-05-09T16:36:33.748Z,2.20
2023-05-09T16:39:02.789Z,1.90
2023-05-09T16:41:29.687Z,2.00
2023-05-09T16:43:57.498Z,2.20
2023-05-09T16:46:24.874Z,2.10
2023-05-09T16:48:52.705Z,1.90
2023-05-09T16:51:19.477Z,1.80
2023-05-09T16:53:46.349Z,1.90
2023-05-09T16:56:13.317Z,2.10
2023-05-09T16:58:40.156Z,2.00
2023-05-09T17:01:07.105Z,2.20
2023-05-09T17:03:34.318Z,1.90
2023-05-09T17:06:01.207Z,2.10
2023-05-09T17:08:27.962Z,2.20
2023-05-09T17:10:55.118Z,1.60
2023-05-09T17:13:22.100Z,1.80
2023-05-09T17:15:49.402Z,1.70
2023-05-09T17:18:22.177Z,1.70
2023-05-09T17:20:56.831Z,1.90
2023-05-09T17:23:24.484Z,1.60
2023-05-09T17:25:51.915Z,1.70
2023-05-09T17:28:18.625Z,1.70
2023-05-09T17:30:45.578Z,2.00
2023-05-09T17:33:12.354Z,2.10
2023-05-09T17:35:46.993Z,1.90
2023-05-09T17:38:14.165Z,2.10
2023-05-09T17:40:40.999Z,2.00
2023-05-09T17:43:07.726Z,2.10
2023-05-09T17:45:34.552Z,2.00
2023-05-09T17:48:02.339Z,2.30
2023-05-09T17:50:29.317Z,1.70
2023-05-09T17:52:57.069Z,2.50
2023-05-09T17:55:23.861Z,2.00
2023-05-09T17:57:50.767Z,2.10
2023-05-09T18:00:18.478Z,2.20
2023-05-09T18:02:48.278Z,2.30
2023-05-09T18:05:16.392Z,2.40
2023-05-09T18:07:43.214Z,2.40
2023-05-09T18:10:13.701Z,2.30
2023-05-09T18:12:41.002Z,2.30
2023-05-09T18:15:09.401Z,2.60
2023-05-09T18:17:36.910Z,2.10
2023-05-09T18:20:08.415Z,2.50
2023-05-09T18:22:38.646Z,2.40
2023-05-09T18:25:07.738Z,2.40
2023-05-09T18:27:35.257Z,2.20
2023-05-09T18:30:02.143Z,2.20
2023-05-09T18:32:29.987Z,2.30
2023-05-09T18:35:12.577Z,2.10
2023-05-09T18:37:39.957Z,2.40
2023-05-09T18:40:10.971Z,2.90
2023-05-09T18:42:39.380Z,2.80
2023-05-09T18:45:12.327Z,3.30
2023-05-09T18:47:39.647Z,3.20
2023-05-09T18:50:07.413Z,3.40
2023-05-09T18:52:35.583Z,3.50
2023-05-09T18:55:04.128Z,3.30
2023-05-09T18:57:31.089Z,3.40
2023-05-09T18:59:58.219Z,3.10
2023-05-09T19:02:26.555Z,3.20
2023-05-09T19:04:53.782Z,3.20
2023-05-09T19:07:23.926Z,3.00
2023-05-09T19:09:50.694Z,3.10
2023-05-09T19:12:17.794Z,2.60
2023-05-09T19:14:44.587Z,2.90
2023-05-09T19:17:12.059Z,3.10
2023-05-09T19:19:39.455Z,3.00
2023-05-09T19:22:07.490Z,3.00
2023-05-09T19:24:38.789Z,2.50
2023-05-09T19:27:07.696Z,3.10
2023-05-09T19:29:35.980Z,3.20
2023-05-09T19:32:04.123Z,3.40
2023-05-09T19:34:31.026Z,3.50
2023-05-09T19:36:57.800Z,3.20
2023-05-09T19:39:25.680Z,4.80
2023-05-09T19:41:52.517Z,5.40
2023-05-09T19:44:19.288Z,5.80
2023-05-09T19:46:46.249Z,5.70
2023-05-09T19:52:04.156Z,7.60
2023-05-09T19:54:31.181Z,6.10
2023-05-09T19:56:58.107Z,6.60
2023-05-09T19:59:24.910Z,6.50
2023-05-09T20:01:51.909Z,6.50
2023-05-09T20:04:21.830Z,7.20
2023-05-09T20:06:48.766Z,6.10
2023-05-09T20:09:18.001Z,6.10
2023-05-09T20:11:44.740Z,5.40
2023-05-09T20:14:11.572Z,5.20
2023-05-09T20:16:38.432Z,4.00
2023-05-09T20:19:08.004Z,4.20
2023-05-09T20:21:35.527Z,4.60
2023-05-09T20:24:03.494Z,4.30
2023-05-09T20:26:31.788Z,4.20
2023-05-09T20:29:01.659Z,3.60
2023-05-09T20:31:29.366Z,3.70
2023-05-09T20:33:57.974Z,4.00
2023-05-09T20:36:26.274Z,3.80
2023-05-09T20:38:53.150Z,3.40
2023-05-09T20:41:22.006Z,3.50
2023-05-09T20:43:50.187Z,3.30
2023-05-09T20:46:17.576Z,3.60
2023-05-09T20:48:44.479Z,3.30
2023-05-09T20:51:11.222Z,3.20
2023-05-09T20:53:38.004Z,3.20
2023-05-09T20:56:05.088Z,3.70
2023-05-09T20:58:33.997Z,3.00
2023-05-09T21:01:00.952Z,3.30
2023-05-09T21:03:27.969Z,3.10
2023-05-09T21:05:54.912Z,3.20
2023-05-09T21:08:23.330Z,2.40
2023-05-09T21:10:52.564Z,3.50
2023-05-09T21:13:19.571Z,3.80
2023-05-09T21:15:49.124Z,3.40
2023-05-09T21:18:15.960Z,4.00
2023-05-09T21:20:42.815Z,3.50
2023-05-09T21:23:09.652Z,3.40
2023-05-09T21:25:36.470Z,3.50
2023-05-09T21:28:03.390Z,3.50
2023-05-09T21:30:30.349Z,4.10
2023-05-09T21:32:57.118Z,4.00
2023-05-09T21:35:23.992Z,3.80
2023-05-09T21:37:52.718Z,3.60
2023-05-09T21:40:19.854Z,3.80
2023-05-09T21:42:47.882Z,3.70
2023-05-09T21:45:14.920Z,3.50
2023-05-09T21:47:41.821Z,4.00
2023-05-09T21:50:09.338Z,3.80
2023-05-09T21:52:36.165Z,2.90
2023-05-09T21:55:02.957Z,3.70
2023-05-09T21:57:29.842Z,4.00
2023-05-09T22:00:01.179Z,4.10
2023-05-09T22:02:29.876Z,3.40
2023-05-09T22:04:56.747Z,4.10
2023-05-09T22:07:23.596Z,3.80
2023-05-09T22:09:50.566Z,4.30
2023-05-09T22:12:17.386Z,4.20
2023-05-09T22:14:55.383Z,4.10
2023-05-09T22:17:24.325Z,3.80
2023-05-09T22:19:51.441Z,4.40
2023-05-09T22:22:18.235Z,4.20
2023-05-09T22:24:45.021Z,4.30
2023-05-09T22:27:11.926Z,4.10
2023-05-09T22:29:38.736Z,4.40
2023-05-09T22:32:07.801Z,4.30
2023-05-09T22:34:35.532Z,4.10
2023-05-09T22:37:02.339Z,4.80
2023-05-09T22:39:29.839Z,4.80
2023-05-09T22:41:56.821Z,4.30
2023-05-09T22:44:23.567Z,4.50
2023-05-09T22:46:50.418Z,5.20
2023-05-09T22:49:18.310Z,4.70
2023-05-09T22:51:45.180Z,4.30
2023-05-09T22:54:12.201Z,4.30
2023-05-09T22:56:39.006Z,4.60
2023-05-09T22:59:05.872Z,4.10
2023-05-09T23:01:32.740Z,4.00
2023-05-09T23:03:59.621Z,4.90
2023-05-09T23:06:26.351Z,5.40
2023-05-09T23:08:53.058Z,5.20
2023-05-09T23:11:21.041Z,4.70
2023-05-09T23:13:48.032Z,5.30
2023-05-09T23:16:16.246Z,4.90
2023-05-09T23:18:43.300Z,4.70
2023-05-09T23:21:10.034Z,4.80
2023-05-09T23:23:37.137Z,5.60
2023-05-09T23:26:03.938Z,5.00
2023-05-09T23:28:30.679Z,4.20
2023-05-09T23:30:57.415Z,4.50
2023-05-09T23:33:24.334Z,4.20
2023-05-09T23:35:51.203Z,4.20
2023-05-09T23:38:17.960Z,4.60
2023-05-09T23:40:46.148Z,5.00
2023-05-09T23:43:13.682Z,4.70
2023-05-09T23:45:40.559Z,4.80
2023-05-09T23:48:07.979Z,5.00
2023-05-09T23:50:34.776Z,5.10
2023-05-09T23:53:01.928Z,5.40
2023-05-09T23:55:29.197Z,4.50
2023-05-09T23:57:56.056Z,4.70
